sensor_id;sensor_type;location;lat;lon;timestamp;pressure;altitude;pressure_sealevel;temperature;humidity
15750;BME280;7976;52.526;13.326;2024-02-14T00:00:07;101447.78;;;5.69;85.04
15750;BME280;7976;52.526;13.326;2024-02-14T00:02:39;101450.34;;;5.72;85.21
15750;BME280;7976;52.526;13.326;2024-02-14T00:05:10;101443.44;;;5.72;85.02
15750;BME280;7976;52.526;13.326;2024-02-14T00:07:38;101450.31;;;5.76;85.07
15750;BME280;7976;52.526;13.326;2024-02-14T00:10:06;101445.09;;;5.76;84.90
15750;BME280;7976;52.526;13.326;2024-02-14T00:12:33;101450.31;;;5.75;84.89
15750;BME280;7976;52.526;13.326;2024-02-14T00:15:01;101446.00;;;5.74;84.66
15750;BME280;7976;52.526;13.326;2024-02-14T00:17:29;101446.88;;;5.74;84.64
15750;BME280;7976;52.526;13.326;2024-02-14T00:19:56;101449.47;;;5.73;84.65
15750;BME280;7976;52.526;13.326;2024-02-14T00:22:25;101446.88;;;5.71;84.72
15750;BME280;7976;52.526;13.326;2024-02-14T00:24:52;101452.06;;;5.71;84.25
15750;BME280;7976;52.526;13.326;2024-02-14T00:27:19;101449.47;;;5.70;84.29
15750;BME280;7976;52.526;13.326;2024-02-14T00:29:50;101452.09;;;5.68;84.22
15750;BME280;7976;52.526;13.326;2024-02-14T00:32:19;101443.44;;;5.65;84.37
15750;BME280;7976;52.526;13.326;2024-02-14T00:34:47;101440.03;;;5.64;84.08
15750;BME280;7976;52.526;13.326;2024-02-14T00:37:15;101445.19;;;5.67;84.36
15750;BME280;7976;52.526;13.326;2024-02-14T00:39:44;101447.78;;;5.69;84.15
15750;BME280;7976;52.526;13.326;2024-02-14T00:42:18;101434.81;;;5.66;84.23
15750;BME280;7976;52.526;13.326;2024-02-14T00:44:46;101450.28;;;5.78;84.06
15750;BME280;7976;52.526;13.326;2024-02-14T00:47:13;101454.59;;;5.82;83.92
15750;BME280;7976;52.526;13.326;2024-02-14T00:49:40;101456.34;;;5.83;83.86
15750;BME280;7976;52.526;13.326;2024-02-14T00:52:07;101449.44;;;5.79;83.60
15750;BME280;7976;52.526;13.326;2024-02-14T00:54:38;101449.47;;;5.76;83.56
15750;BME280;7976;52.526;13.326;2024-02-14T00:57:06;101446.84;;;5.79;83.95
15750;BME280;7976;52.526;13.326;2024-02-14T00:59:34;101456.38;;;5.77;83.62
15750;BME280;7976;52.526;13.326;2024-02-14T01:02:01;101458.97;;;5.77;83.71
15750;BME280;7976;52.526;13.326;2024-02-14T01:04:28;101459.00;;;5.74;83.74
15750;BME280;7976;52.526;13.326;2024-02-14T01:06:55;101465.03;;;5.77;83.58
15750;BME280;7976;52.526;13.326;2024-02-14T01:09:28;101450.31;;;5.75;83.78
15750;BME280;7976;52.526;13.326;2024-02-14T01:11:58;101452.03;;;5.79;83.78
15750;BME280;7976;52.526;13.326;2024-02-14T01:14:27;101458.09;;;5.82;83.84
15750;BME280;7976;52.526;13.326;2024-02-14T01:16:54;101445.94;;;5.81;83.44
15750;BME280;7976;52.526;13.326;2024-02-14T01:19:23;101435.63;;;5.74;83.52
15750;BME280;7976;52.526;13.326;2024-02-14T01:21:54;101449.41;;;5.80;83.60
15750;BME280;7976;52.526;13.326;2024-02-14T01:24:23;101447.69;;;5.78;83.49
15750;BME280;7976;52.526;13.326;2024-02-14T01:26:53;101453.75;;;5.78;83.46
15750;BME280;7976;52.526;13.326;2024-02-14T01:29:21;101449.47;;;5.73;83.74
15750;BME280;7976;52.526;13.326;2024-02-14T01:31:50;101436.53;;;5.67;83.94
15750;BME280;7976;52.526;13.326;2024-02-14T01:34:17;101430.47;;;5.66;83.89
15750;BME280;7976;52.526;13.326;2024-02-14T01:36:45;101427.88;;;5.71;83.90
15750;BME280;7976;52.526;13.326;2024-02-14T01:39:12;101421.78;;;5.72;83.88
15750;BME280;7976;52.526;13.326;2024-02-14T01:41:44;101416.59;;;5.72;83.79
15750;BME280;7976;52.526;13.326;2024-02-14T01:44:12;101411.44;;;5.69;83.58
15750;BME280;7976;52.526;13.326;2024-02-14T01:46:39;101423.50;;;5.76;83.67
15750;BME280;7976;52.526;13.326;2024-02-14T01:49:08;101429.53;;;5.78;83.57
15750;BME280;7976;52.526;13.326;2024-02-14T01:51:39;101424.31;;;5.78;83.60
15750;BME280;7976;52.526;13.326;2024-02-14T01:54:08;101417.44;;;5.75;83.68
15750;BME280;7976;52.526;13.326;2024-02-14T01:56:35;101421.72;;;5.81;83.58
15750;BME280;7976;52.526;13.326;2024-02-14T01:59:02;101421.72;;;5.81;83.72
15750;BME280;7976;52.526;13.326;2024-02-14T02:01:31;101421.72;;;5.78;83.61
15750;BME280;7976;52.526;13.326;2024-02-14T02:04:04;101414.81;;;5.77;84.00
15750;BME280;7976;52.526;13.326;2024-02-14T02:06:34;101417.41;;;5.78;83.87
15750;BME280;7976;52.526;13.326;2024-02-14T02:09:02;101413.06;;;5.82;83.84
15750;BME280;7976;52.526;13.326;2024-02-14T02:11:45;101410.47;;;5.82;83.45
15750;BME280;7976;52.526;13.326;2024-02-14T02:14:13;101397.47;;;5.91;83.60
15750;BME280;7976;52.526;13.326;2024-02-14T02:16:42;101396.56;;;5.92;83.24
15750;BME280;7976;52.526;13.326;2024-02-14T02:19:09;101390.53;;;5.90;83.19
15750;BME280;7976;52.526;13.326;2024-02-14T02:21:38;101393.09;;;5.93;83.17
15750;BME280;7976;52.526;13.326;2024-02-14T02:24:09;101393.16;;;5.87;83.10
15750;BME280;7976;52.526;13.326;2024-02-14T02:26:37;101390.59;;;5.84;83.10
15750;BME280;7976;52.526;13.326;2024-02-14T02:29:04;101398.34;;;5.85;83.10
15750;BME280;7976;52.526;13.326;2024-02-14T02:31:35;101386.25;;;5.83;82.98
15750;BME280;7976;52.526;13.326;2024-02-14T02:34:03;101394.03;;;5.83;83.22
15750;BME280;7976;52.526;13.326;2024-02-14T02:36:32;101394.94;;;5.77;83.10
15750;BME280;7976;52.526;13.326;2024-02-14T02:38:59;101390.63;;;5.73;83.26
15750;BME280;7976;52.526;13.326;2024-02-14T02:41:29;101389.69;;;5.82;83.24
15750;BME280;7976;52.526;13.326;2024-02-14T02:43:59;101388.00;;;5.79;83.08
15750;BME280;7976;52.526;13.326;2024-02-14T02:46:30;101388.03;;;5.73;83.44
15750;BME280;7976;52.526;13.326;2024-02-14T02:49:01;101388.03;;;5.70;83.52
15750;BME280;7976;52.526;13.326;2024-02-14T02:51:28;101372.53;;;5.60;83.47
15750;BME280;7976;52.526;13.326;2024-02-14T02:53:56;101377.69;;;5.63;83.53
15750;BME280;7976;52.526;13.326;2024-02-14T02:56:23;101385.50;;;5.60;83.97
15750;BME280;7976;52.526;13.326;2024-02-14T02:58:56;101380.34;;;5.57;83.87
15750;BME280;7976;52.526;13.326;2024-02-14T03:01:25;101384.69;;;5.53;83.94
15750;BME280;7976;52.526;13.326;2024-02-14T03:03:57;101374.31;;;5.53;84.17
15750;BME280;7976;52.526;13.326;2024-02-14T03:06:27;101380.38;;;5.54;84.43
15750;BME280;7976;52.526;13.326;2024-02-14T03:08:54;101371.72;;;5.52;84.29
15750;BME280;7976;52.526;13.326;2024-02-14T03:11:23;101370.91;;;5.45;84.20
15750;BME280;7976;52.526;13.326;2024-02-14T03:13:53;101357.09;;;5.43;84.61
15750;BME280;7976;52.526;13.326;2024-02-14T03:16:22;101369.19;;;5.47;84.65
15750;BME280;7976;52.526;13.326;2024-02-14T03:18:50;101362.28;;;5.43;84.74
15750;BME280;7976;52.526;13.326;2024-02-14T03:21:17;101364.88;;;5.42;84.85
15750;BME280;7976;52.526;13.326;2024-02-14T03:23:44;101370.91;;;5.45;85.13
15750;BME280;7976;52.526;13.326;2024-02-14T03:26:12;101357.09;;;5.40;84.96
15750;BME280;7976;52.526;13.326;2024-02-14T03:28:39;101351.91;;;5.43;85.12
15750;BME280;7976;52.526;13.326;2024-02-14T03:31:09;101357.94;;;5.47;85.00
15750;BME280;7976;52.526;13.326;2024-02-14T03:33:39;101364.00;;;5.46;85.18
15750;BME280;7976;52.526;13.326;2024-02-14T03:36:06;101355.34;;;5.44;85.11
15750;BME280;7976;52.526;13.326;2024-02-14T03:38:34;101347.56;;;5.44;85.08
15750;BME280;7976;52.526;13.326;2024-02-14T03:41:01;101333.72;;;5.45;85.24
15750;BME280;7976;52.526;13.326;2024-02-14T03:43:27;101339.75;;;5.48;85.23
15750;BME280;7976;52.526;13.326;2024-02-14T03:45:54;101342.31;;;5.53;85.15
15750;BME280;7976;52.526;13.326;2024-02-14T03:48:21;101344.03;;;5.54;85.04
15750;BME280;7976;52.526;13.326;2024-02-14T03:50:50;101350.09;;;5.53;84.86
15750;BME280;7976;52.526;13.326;2024-02-14T03:53:17;101343.19;;;5.52;84.85
15750;BME280;7976;52.526;13.326;2024-02-14T03:55:44;101331.09;;;5.48;84.60
15750;BME280;7976;52.526;13.326;2024-02-14T03:58:11;101323.31;;;5.48;85.26
15750;BME280;7976;52.526;13.326;2024-02-14T04:00:40;101320.72;;;5.48;84.96
15750;BME280;7976;52.526;13.326;2024-02-14T04:03:12;101322.47;;;5.47;85.03
15750;BME280;7976;52.526;13.326;2024-02-14T04:05:39;101334.59;;;5.45;85.12
15750;BME280;7976;52.526;13.326;2024-02-14T04:08:07;101335.44;;;5.43;85.03
15750;BME280;7976;52.526;13.326;2024-02-14T04:10:35;101342.41;;;5.41;84.88
15750;BME280;7976;52.526;13.326;2024-02-14T04:13:03;101350.19;;;5.41;85.04
15750;BME280;7976;52.526;13.326;2024-02-14T04:15:31;101352.78;;;5.38;85.01
15750;BME280;7976;52.526;13.326;2024-02-14T04:17:58;101351.03;;;5.43;85.30
15750;BME280;7976;52.526;13.326;2024-02-14T04:20:28;101346.66;;;5.48;85.04
15750;BME280;7976;52.526;13.326;2024-02-14T04:22:56;101346.69;;;5.49;84.98
15750;BME280;7976;52.526;13.326;2024-02-14T04:25:25;101344.06;;;5.46;84.76
15750;BME280;7976;52.526;13.326;2024-02-14T04:27:53;101351.88;;;5.49;84.81
15750;BME280;7976;52.526;13.326;2024-02-14T04:30:22;101342.34;;;5.50;84.96
15750;BME280;7976;52.526;13.326;2024-02-14T04:32:49;101343.25;;;5.46;84.84
15750;BME280;7976;52.526;13.326;2024-02-14T04:35:19;101347.50;;;5.51;85.23
15750;BME280;7976;52.526;13.326;2024-02-14T04:37:46;101345.78;;;5.52;85.06
15750;BME280;7976;52.526;13.326;2024-02-14T04:40:15;101337.13;;;5.51;85.08
15750;BME280;7976;52.526;13.326;2024-02-14T04:42:43;101341.44;;;5.54;85.08
15750;BME280;7976;52.526;13.326;2024-02-14T04:45:10;101341.44;;;5.54;85.17
15750;BME280;7976;52.526;13.326;2024-02-14T04:47:38;101330.16;;;5.56;85.18
15750;BME280;7976;52.526;13.326;2024-02-14T04:50:06;101330.16;;;5.58;84.98
15750;BME280;7976;52.526;13.326;2024-02-14T04:52:33;101330.16;;;5.58;85.19
15750;BME280;7976;52.526;13.326;2024-02-14T04:55:00;101323.22;;;5.60;85.17
15750;BME280;7976;52.526;13.326;2024-02-14T04:57:27;101324.97;;;5.61;85.12
15750;BME280;7976;52.526;13.326;2024-02-14T04:59:55;101318.91;;;5.60;85.09
15750;BME280;7976;52.526;13.326;2024-02-14T05:02:25;101314.59;;;5.61;85.07
15750;BME280;7976;52.526;13.326;2024-02-14T05:04:53;101315.44;;;5.58;85.33
15750;BME280;7976;52.526;13.326;2024-02-14T05:07:20;101307.63;;;5.63;85.34
15750;BME280;7976;52.526;13.326;2024-02-14T05:09:48;101309.38;;;5.64;85.03
15750;BME280;7976;52.526;13.326;2024-02-14T05:12:17;101306.78;;;5.62;85.01
15750;BME280;7976;52.526;13.326;2024-02-14T05:14:45;101294.66;;;5.61;85.12
15750;BME280;7976;52.526;13.326;2024-02-14T05:17:13;101299.84;;;5.61;84.89
15750;BME280;7976;52.526;13.326;2024-02-14T05:19:42;101300.72;;;5.62;85.19
15750;BME280;7976;52.526;13.326;2024-02-14T05:22:09;101299.84;;;5.61;85.08
15750;BME280;7976;52.526;13.326;2024-02-14T05:24:35;101292.06;;;5.60;85.17
15750;BME280;7976;52.526;13.326;2024-02-14T05:27:04;101294.66;;;5.60;85.31
15750;BME280;7976;52.526;13.326;2024-02-14T05:29:31;101286.91;;;5.58;85.40
15750;BME280;7976;52.526;13.326;2024-02-14T05:31:59;101285.16;;;5.62;85.25
15750;BME280;7976;52.526;13.326;2024-02-14T05:34:28;101271.31;;;5.61;85.24
15750;BME280;7976;52.526;13.326;2024-02-14T05:36:55;101272.16;;;5.62;85.33
15750;BME280;7976;52.526;13.326;2024-02-14T05:39:22;101273.88;;;5.63;85.32
15750;BME280;7976;52.526;13.326;2024-02-14T05:41:49;101274.75;;;5.62;85.27
15750;BME280;7976;52.526;13.326;2024-02-14T05:44:17;101261.00;;;5.54;85.37
15750;BME280;7976;52.526;13.326;2024-02-14T05:46:46;101258.31;;;5.61;85.40
15750;BME280;7976;52.526;13.326;2024-02-14T05:49:14;101247.13;;;5.55;85.48
15750;BME280;7976;52.526;13.326;2024-02-14T05:51:43;101254.91;;;5.56;85.42
15750;BME280;7976;52.526;13.326;2024-02-14T05:54:10;101252.25;;;5.64;85.65
15750;BME280;7976;52.526;13.326;2024-02-14T05:56:37;101261.75;;;5.65;85.42
15750;BME280;7976;52.526;13.326;2024-02-14T05:59:04;101253.09;;;5.67;85.40
15750;BME280;7976;52.526;13.326;2024-02-14T06:01:31;101260.88;;;5.67;85.50
15750;BME280;7976;52.526;13.326;2024-02-14T06:03:58;101261.72;;;5.68;85.39
15750;BME280;7976;52.526;13.326;2024-02-14T06:06:25;101264.34;;;5.69;85.29
15750;BME280;7976;52.526;13.326;2024-02-14T06:08:53;101257.44;;;5.64;85.29
15750;BME280;7976;52.526;13.326;2024-02-14T06:11:20;101260.03;;;5.65;85.36
15750;BME280;7976;52.526;13.326;2024-02-14T06:13:47;101266.09;;;5.66;85.50
15750;BME280;7976;52.526;13.326;2024-02-14T06:16:14;101248.75;;;5.68;85.31
15750;BME280;7976;52.526;13.326;2024-02-14T06:18:42;101261.72;;;5.69;85.53
15750;BME280;7976;52.526;13.326;2024-02-14T06:21:09;101251.34;;;5.69;85.55
15750;BME280;7976;52.526;13.326;2024-02-14T06:23:36;101247.88;;;5.69;85.58
15750;BME280;7976;52.526;13.326;2024-02-14T06:26:06;101262.56;;;5.74;85.47
15750;BME280;7976;52.526;13.326;2024-02-14T06:28:33;101256.47;;;5.77;85.59
15750;BME280;7976;52.526;13.326;2024-02-14T06:31:00;101268.56;;;5.78;85.40
15750;BME280;7976;52.526;13.326;2024-02-14T06:33:27;101262.47;;;5.80;85.37
15750;BME280;7976;52.526;13.326;2024-02-14T06:35:54;101262.47;;;5.82;85.22
15750;BME280;7976;52.526;13.326;2024-02-14T06:38:22;101264.22;;;5.83;85.33
15750;BME280;7976;52.526;13.326;2024-02-14T06:40:49;101269.41;;;5.84;85.12
15750;BME280;7976;52.526;13.326;2024-02-14T06:43:18;101261.63;;;5.84;85.41
15750;BME280;7976;52.526;13.326;2024-02-14T06:45:45;101255.53;;;5.87;85.31
15750;BME280;7976;52.526;13.326;2024-02-14T06:48:13;101259.81;;;5.92;85.08
15750;BME280;7976;52.526;13.326;2024-02-14T06:50:40;101250.25;;;5.93;85.23
15750;BME280;7976;52.526;13.326;2024-02-14T06:53:08;101245.91;;;5.95;85.27
15750;BME280;7976;52.526;13.326;2024-02-14T06:55:35;101241.56;;;5.97;85.16
15750;BME280;7976;52.526;13.326;2024-02-14T06:58:02;101238.09;;;6.01;84.99
15750;BME280;7976;52.526;13.326;2024-02-14T07:00:34;101235.50;;;5.98;85.00
15750;BME280;7976;52.526;13.326;2024-02-14T07:03:02;101227.69;;;6.02;85.15
15750;BME280;7976;52.526;13.326;2024-02-14T07:05:29;101236.22;;;6.12;84.71
15750;BME280;7976;52.526;13.326;2024-02-14T07:07:57;101231.91;;;6.11;84.53
15750;BME280;7976;52.526;13.326;2024-02-14T07:10:24;101241.31;;;6.18;84.59
15750;BME280;7976;52.526;13.326;2024-02-14T07:12:50;101237.84;;;6.20;84.36
15750;BME280;7976;52.526;13.326;2024-02-14T07:15:19;101227.47;;;6.19;84.44
15750;BME280;7976;52.526;13.326;2024-02-14T07:17:48;101236.94;;;6.26;84.46
15750;BME280;7976;52.526;13.326;2024-02-14T07:20:15;101234.28;;;6.29;84.35
15750;BME280;7976;52.526;13.326;2024-02-14T07:22:43;101248.94;;;6.33;84.28
15750;BME280;7976;52.526;13.326;2024-02-14T07:25:11;101234.19;;;6.35;84.14
15750;BME280;7976;52.526;13.326;2024-02-14T07:27:39;101252.34;;;6.38;83.84
15750;BME280;7976;52.526;13.326;2024-02-14T07:30:07;101245.38;;;6.42;83.87
15750;BME280;7976;52.526;13.326;2024-02-14T07:32:37;101253.16;;;6.46;83.64
15750;BME280;7976;52.526;13.326;2024-02-14T07:35:07;101256.50;;;6.54;83.56
15750;BME280;7976;52.526;13.326;2024-02-14T07:37:34;101259.06;;;6.57;83.59
15750;BME280;7976;52.526;13.326;2024-02-14T07:40:01;101270.25;;;6.64;83.41
15750;BME280;7976;52.526;13.326;2024-02-14T07:42:28;101265.88;;;6.66;83.24
15750;BME280;7976;52.526;13.326;2024-02-14T07:44:55;101270.16;;;6.68;83.29
15750;BME280;7976;52.526;13.326;2024-02-14T07:47:23;101266.72;;;6.69;83.24
15750;BME280;7976;52.526;13.326;2024-02-14T07:49:52;101258.91;;;6.69;83.33
15750;BME280;7976;52.526;13.326;2024-02-14T07:52:24;101264.00;;;6.77;83.11
15750;BME280;7976;52.526;13.326;2024-02-14T07:54:52;101251.00;;;6.75;83.13
15750;BME280;7976;52.526;13.326;2024-02-14T07:57:22;101255.22;;;6.85;83.07
15750;BME280;7976;52.526;13.326;2024-02-14T07:59:50;101250.91;;;6.84;83.24
15750;BME280;7976;52.526;13.326;2024-02-14T08:02:19;101243.94;;;6.86;82.93
15750;BME280;7976;52.526;13.326;2024-02-14T08:04:46;101237.81;;;6.89;83.01
15750;BME280;7976;52.526;13.326;2024-02-14T08:07:13;101242.09;;;6.94;83.11
15750;BME280;7976;52.526;13.326;2024-02-14T08:09:41;101236.75;;;7.05;83.04
15750;BME280;7976;52.526;13.326;2024-02-14T08:12:08;101234.91;;;7.11;83.08
15750;BME280;7976;52.526;13.326;2024-02-14T08:14:36;101231.38;;;7.14;82.80
15750;BME280;7976;52.526;13.326;2024-02-14T08:17:03;101228.75;;;7.15;82.76
15750;BME280;7976;52.526;13.326;2024-02-14T08:19:30;101218.41;;;7.11;82.80
15750;BME280;7976;52.526;13.326;2024-02-14T08:21:57;101215.91;;;7.03;83.19
15750;BME280;7976;52.526;13.326;2024-02-14T08:24:26;101226.31;;;7.06;83.49
15750;BME280;7976;52.526;13.326;2024-02-14T08:26:54;101215.91;;;7.03;84.02
15750;BME280;7976;52.526;13.326;2024-02-14T08:29:21;101227.09;;;7.11;84.24
15750;BME280;7976;52.526;13.326;2024-02-14T08:31:48;101227.03;;;7.14;84.37
15750;BME280;7976;52.526;13.326;2024-02-14T08:34:16;101219.13;;;7.20;84.87
15750;BME280;7976;52.526;13.326;2024-02-14T08:36:43;101224.19;;;7.29;85.01
15750;BME280;7976;52.526;13.326;2024-02-14T08:39:11;101218.03;;;7.33;84.63
15750;BME280;7976;52.526;13.326;2024-02-14T08:41:40;101224.03;;;7.38;85.04
15750;BME280;7976;52.526;13.326;2024-02-14T08:44:12;101224.81;;;7.43;84.87
15750;BME280;7976;52.526;13.326;2024-02-14T08:46:39;101231.72;;;7.47;85.17
15750;BME280;7976;52.526;13.326;2024-02-14T08:49:08;101229.94;;;7.49;85.01
15750;BME280;7976;52.526;13.326;2024-02-14T08:51:35;101222.94;;;7.53;85.13
15750;BME280;7976;52.526;13.326;2024-02-14T08:54:02;101225.47;;;7.57;85.16
15750;BME280;7976;52.526;13.326;2024-02-14T08:56:31;101218.38;;;7.65;85.30
15750;BME280;7976;52.526;13.326;2024-02-14T08:58:59;101216.56;;;7.69;85.31
15750;BME280;7976;52.526;13.326;2024-02-14T09:01:29;101215.66;;;7.72;85.40
15750;BME280;7976;52.526;13.326;2024-02-14T09:03:57;101221.72;;;7.74;85.70
15750;BME280;7976;52.526;13.326;2024-02-14T09:06:25;101219.13;;;7.74;85.73
15750;BME280;7976;52.526;13.326;2024-02-14T09:08:52;101225.13;;;7.76;85.80
15750;BME280;7976;52.526;13.326;2024-02-14T09:11:21;101225.19;;;7.73;85.69
15750;BME280;7976;52.526;13.326;2024-02-14T09:13:49;101222.66;;;7.70;86.11
15750;BME280;7976;52.526;13.326;2024-02-14T09:16:20;101221.00;;;7.64;86.23
15750;BME280;7976;52.526;13.326;2024-02-14T09:18:50;101226.13;;;7.70;86.62
15750;BME280;7976;52.526;13.326;2024-02-14T09:21:17;101227.81;;;7.71;87.01
15750;BME280;7976;52.526;13.326;2024-02-14T09:23:46;101232.13;;;7.74;86.79
15750;BME280;7976;52.526;13.326;2024-02-14T09:26:13;101222.59;;;7.73;86.79
15750;BME280;7976;52.526;13.326;2024-02-14T09:28:45;101220.94;;;7.67;86.94
15750;BME280;7976;52.526;13.326;2024-02-14T09:31:17;101234.03;;;7.62;87.46
15750;BME280;7976;52.526;13.326;2024-02-14T09:33:45;101234.97;;;7.58;88.03
15750;BME280;7976;52.526;13.326;2024-02-14T09:36:14;101232.50;;;7.52;88.20
15750;BME280;7976;52.526;13.326;2024-02-14T09:38:41;101220.41;;;7.50;88.85
15750;BME280;7976;52.526;13.326;2024-02-14T09:41:15;101222.84;;;7.57;89.08
15750;BME280;7976;52.526;13.326;2024-02-14T09:43:46;101230.59;;;7.60;89.55
15750;BME280;7976;52.526;13.326;2024-02-14T09:46:14;101229.69;;;7.64;89.79
15750;BME280;7976;52.526;13.326;2024-02-14T09:48:44;101215.84;;;7.61;90.12
15750;BME280;7976;52.526;13.326;2024-02-14T09:51:13;101221.88;;;7.64;90.33
15750;BME280;7976;52.526;13.326;2024-02-14T09:53:41;101223.69;;;7.59;90.45
15750;BME280;7976;52.526;13.326;2024-02-14T09:56:11;101228.97;;;7.56;91.10
15750;BME280;7976;52.526;13.326;2024-02-14T09:58:40;101226.28;;;7.59;91.53
15750;BME280;7976;52.526;13.326;2024-02-14T10:01:07;101227.13;;;7.61;91.96
15750;BME280;7976;52.526;13.326;2024-02-14T10:03:34;101226.19;;;7.65;92.18
15750;BME280;7976;52.526;13.326;2024-02-14T10:06:02;101221.78;;;7.69;92.60
15750;BME280;7976;52.526;13.326;2024-02-14T10:08:31;101214.78;;;7.73;92.94
15750;BME280;7976;52.526;13.326;2024-02-14T10:10:58;101212.94;;;7.78;93.62
15750;BME280;7976;52.526;13.326;2024-02-14T10:13:27;101218.00;;;7.87;93.85
15750;BME280;7976;52.526;13.326;2024-02-14T10:15:56;101214.44;;;7.91;94.14
15750;BME280;7976;52.526;13.326;2024-02-14T10:18:23;101214.34;;;7.97;94.48
15750;BME280;7976;52.526;13.326;2024-02-14T10:20:54;101214.38;;;7.95;94.75
15750;BME280;7976;52.526;13.326;2024-02-14T10:23:22;101207.47;;;7.91;95.00
15750;BME280;7976;52.526;13.326;2024-02-14T10:25:53;101215.50;;;7.81;95.56
15750;BME280;7976;52.526;13.326;2024-02-14T10:28:22;101212.19;;;7.71;96.18
15750;BME280;7976;52.526;13.326;2024-02-14T10:30:49;101213.91;;;7.72;96.70
15750;BME280;7976;52.526;13.326;2024-02-14T10:33:16;101206.88;;;7.79;97.81
15750;BME280;7976;52.526;13.326;2024-02-14T10:35:45;101206.78;;;7.83;97.32
15750;BME280;7976;52.526;13.326;2024-02-14T10:38:14;101197.28;;;7.79;97.96
15750;BME280;7976;52.526;13.326;2024-02-14T10:40:42;101204.25;;;7.79;98.34
15750;BME280;7976;52.526;13.326;2024-02-14T10:43:12;101199.16;;;7.73;98.58
15750;BME280;7976;52.526;13.326;2024-02-14T10:45:39;101204.34;;;7.73;99.25
15750;BME280;7976;52.526;13.326;2024-02-14T10:48:12;101194.78;;;7.75;99.58
15750;BME280;7976;52.526;13.326;2024-02-14T10:50:41;101199.81;;;7.82;100.00
15750;BME280;7976;52.526;13.326;2024-02-14T10:53:14;101204.03;;;7.89;100.00
15750;BME280;7976;52.526;13.326;2024-02-14T10:55:47;101198.75;;;7.94;100.00
15750;BME280;7976;52.526;13.326;2024-02-14T10:58:16;101194.31;;;7.99;100.00
15750;BME280;7976;52.526;13.326;2024-02-14T11:00:47;101197.56;;;8.10;100.00
15750;BME280;7976;52.526;13.326;2024-02-14T11:03:15;101186.97;;;8.19;100.00
15750;BME280;7976;52.526;13.326;2024-02-14T11:05:47;101192.97;;;8.24;100.00
15750;BME280;7976;52.526;13.326;2024-02-14T11:08:18;101185.97;;;8.26;100.00
15750;BME280;7976;52.526;13.326;2024-02-14T11:10:54;101183.28;;;8.30;100.00
15750;BME280;7976;52.526;13.326;2024-02-14T11:13:25;101190.09;;;8.36;100.00
15750;BME280;7976;52.526;13.326;2024-02-14T11:15:53;101178.03;;;8.32;100.00
15750;BME280;7976;52.526;13.326;2024-02-14T11:18:25;101187.69;;;8.27;100.00
15750;BME280;7976;52.526;13.326;2024-02-14T11:20:52;101182.47;;;8.27;100.00
15750;BME280;7976;52.526;13.326;2024-02-14T11:23:22;101179.88;;;8.27;100.00
15750;BME280;7976;52.526;13.326;2024-02-14T11:25:49;101180.75;;;8.26;100.00
15750;BME280;7976;52.526;13.326;2024-02-14T11:28:19;101180.75;;;8.26;100.00
15750;BME280;7976;52.526;13.326;2024-02-14T11:30:48;101173.00;;;8.21;100.00
15750;BME280;7976;52.526;13.326;2024-02-14T11:33:20;101181.66;;;8.25;100.00
15750;BME280;7976;52.526;13.326;2024-02-14T11:35:52;101182.38;;;8.31;100.00
15750;BME280;7976;52.526;13.326;2024-02-14T11:38:29;101169.31;;;8.33;100.00
15750;BME280;7976;52.526;13.326;2024-02-14T11:40:56;101167.63;;;8.30;100.00
15750;BME280;7976;52.526;13.326;2024-02-14T11:43:23;101177.19;;;8.30;100.00
15750;BME280;7976;52.526;13.326;2024-02-14T11:45:52;101174.53;;;8.33;100.00
15750;BME280;7976;52.526;13.326;2024-02-14T11:48:20;101176.03;;;8.43;100.00
15750;BME280;7976;52.526;13.326;2024-02-14T11:50:51;101179.31;;;8.52;100.00
15750;BME280;7976;52.526;13.326;2024-02-14T11:53:19;101175.72;;;8.58;100.00
15750;BME280;7976;52.526;13.326;2024-02-14T11:55:47;101181.72;;;8.61;100.00
15750;BME280;7976;52.526;13.326;2024-02-14T11:58:16;101178.22;;;8.64;100.00
15750;BME280;7976;52.526;13.326;2024-02-14T12:00:46;101176.41;;;8.66;100.00
15750;BME280;7976;52.526;13.326;2024-02-14T12:03:19;101182.41;;;8.69;100.00
15750;BME280;7976;52.526;13.326;2024-02-14T12:05:49;101172.84;;;8.70;100.00
15750;BME280;7976;52.526;13.326;2024-02-14T12:08:18;101170.31;;;8.67;100.00
15750;BME280;7976;52.526;13.326;2024-02-14T12:10:46;101171.31;;;8.60;100.00
15750;BME280;7976;52.526;13.326;2024-02-14T12:13:16;101161.81;;;8.57;100.00
15750;BME280;7976;52.526;13.326;2024-02-14T12:15:47;101180.06;;;8.57;100.00
15750;BME280;7976;52.526;13.326;2024-02-14T12:18:16;101159.19;;;8.59;100.00
15750;BME280;7976;52.526;13.326;2024-02-14T12:20:44;101166.03;;;8.63;100.00
15750;BME280;7976;52.526;13.326;2024-02-14T12:23:15;101173.75;;;8.69;100.00
15750;BME280;7976;52.526;13.326;2024-02-14T12:25:43;101177.16;;;8.71;100.00
15750;BME280;7976;52.526;13.326;2024-02-14T12:28:15;101162.31;;;8.73;100.00
15750;BME280;7976;52.526;13.326;2024-02-14T12:30:45;101170.91;;;8.78;100.00
15750;BME280;7976;52.526;13.326;2024-02-14T12:33:13;101170.78;;;8.82;100.00
15750;BME280;7976;52.526;13.326;2024-02-14T12:35:44;101182.88;;;8.86;100.00
15750;BME280;7976;52.526;13.326;2024-02-14T12:38:13;101167.97;;;8.92;100.00
15750;BME280;7976;52.526;13.326;2024-02-14T12:40:41;101175.69;;;8.96;100.00
15750;BME280;7976;52.526;13.326;2024-02-14T12:43:08;101180.88;;;8.98;100.00
15750;BME280;7976;52.526;13.326;2024-02-14T12:45:36;101177.44;;;8.97;100.00
15750;BME280;7976;52.526;13.326;2024-02-14T12:48:04;101174.78;;;8.99;100.00
15750;BME280;7976;52.526;13.326;2024-02-14T12:50:32;101175.66;;;8.99;100.00
15750;BME280;7976;52.526;13.326;2024-02-14T12:53:01;101182.50;;;9.03;100.00
15750;BME280;7976;52.526;13.326;2024-02-14T12:55:28;101177.19;;;9.06;100.00
15750;BME280;7976;52.526;13.326;2024-02-14T12:57:56;101180.56;;;9.11;100.00
15750;BME280;7976;52.526;13.326;2024-02-14T13:00:23;101179.59;;;9.15;100.00
15750;BME280;7976;52.526;13.326;2024-02-14T13:02:51;101180.47;;;9.16;100.00